Time;durP1;ratioP1;P1;durP2;ratioP2;P2;SDS_P1;SDS_P2;PMS_P1;PMS_P2;Temp;Humidity;BMP_temperature;BMP_pressure;BME280_temperature;BME280_humidity;BME280_pressure;Samples;Min_cycle;Max_cycle;Signal;HPM_P1;HPM_P2
2022/01/11 00:01:08;;;;;;;248.48;37.90;;;0.30;99.90;;;;;;4916223;28;20104;-93
2022/01/11 00:03:36;;;;;;;50.63;31.88;;;0.20;99.90;;;;;;4912852;28;20046;-92
2022/01/11 00:06:18;;;;;;;43.58;30.70;;;0.30;99.90;;;;;;4913331;28;20778;-92
2022/01/11 00:08:48;;;;;;;274.40;40.00;;;0.30;99.90;;;;;;4911439;28;20469;-92
2022/01/11 00:11:15;;;;;;;57.33;31.52;;;0.10;99.90;;;;;;4899335;28;20356;-92
2022/01/11 00:13:43;;;;;;;48.15;30.67;;;0.40;99.90;;;;;;4896890;28;20926;-92
2022/01/11 00:16:15;;;;;;;39.67;30.92;;;0.40;99.90;;;;;;4895337;28;20853;-92
2022/01/11 00:18:44;;;;;;;52.30;32.08;;;0.50;99.90;;;;;;4890158;28;20062;-93
2022/01/11 00:21:10;;;;;;;54.13;32.38;;;0.50;99.90;;;;;;4910885;28;20054;-91
2022/01/11 00:26:02;;;;;;;196.25;36.38;;;0.50;99.90;;;;;;4912868;28;20081;-92
2022/01/11 00:28:34;;;;;;;45.58;29.70;;;0.50;99.90;;;;;;4885679;28;21025;-93
2022/01/11 00:31:02;;;;;;;162.00;34.17;;;0.50;99.90;;;;;;4892071;28;20500;-93
2022/01/11 00:33:38;;;;;;;45.47;29.70;;;0.30;99.90;;;;;;4908065;28;20051;-93
2022/01/11 00:36:11;;;;;;;210.55;35.45;;;0.50;99.90;;;;;;4911704;28;20495;-93
2022/01/11 00:38:40;;;;;;;46.67;30.10;;;0.40;99.90;;;;;;4897700;28;20121;-93
2022/01/11 00:41:10;;;;;;;45.28;28.95;;;0.20;99.90;;;;;;4893437;28;20464;-93
2022/01/11 00:43:38;;;;;;;236.35;36.42;;;0.40;99.90;;;;;;4894933;28;20050;-93
2022/01/11 00:46:10;;;;;;;310.13;38.55;;;-0.10;99.90;;;;;;4887483;28;20053;-94
2022/01/11 00:48:40;;;;;;;260.20;39.05;;;-0.10;99.90;;;;;;4906079;28;20780;-92
2022/01/11 00:51:16;;;;;;;376.63;42.30;;;-0.10;99.90;;;;;;4906466;28;20050;-92
2022/01/11 00:53:44;;;;;;;387.88;43.25;;;-0.10;99.90;;;;;;4894594;28;20046;-92
2022/01/11 00:56:13;;;;;;;280.05;41.10;;;-0.10;99.90;;;;;;4890961;28;20350;-92
2022/01/11 00:58:42;;;;;;;211.75;37.42;;;0.00;99.90;;;;;;4895441;28;20038;-91
2022/01/11 01:01:11;;;;;;;240.00;38.83;;;-0.10;99.90;;;;;;4911697;28;20937;-92
2022/01/11 01:03:40;;;;;;;52.83;31.58;;;0.00;99.90;;;;;;4896501;28;20528;-92
2022/01/11 01:06:06;;;;;;;112.70;32.15;;;0.20;99.90;;;;;;4921538;28;20038;-92
2022/01/11 01:08:35;;;;;;;62.13;33.25;;;-0.10;99.90;;;;;;4894361;28;20046;-93
2022/01/11 01:11:01;;;;;;;134.20;35.15;;;0.10;99.90;;;;;;4892676;28;20383;-92
2022/01/11 01:13:28;;;;;;;57.05;32.55;;;0.20;99.90;;;;;;4901093;28;20998;-92
2022/01/11 01:15:56;;;;;;;236.85;39.78;;;0.30;99.90;;;;;;4909717;28;20179;-92
2022/01/11 01:18:33;;;;;;;155.32;36.22;;;0.10;99.90;;;;;;4906025;28;20729;-93
2022/01/11 01:20:59;;;;;;;64.43;30.02;;;0.10;99.90;;;;;;4894748;28;20078;-93
2022/01/11 01:23:25;;;;;;;107.97;34.83;;;0.10;99.90;;;;;;4911428;28;20409;-91
2022/01/11 01:25:52;;;;;;;56.38;31.92;;;0.10;99.90;;;;;;4912693;28;20053;-93
2022/01/11 01:28:18;;;;;;;57.80;31.25;;;0.20;99.90;;;;;;4904161;28;20062;-93
2022/01/11 01:30:55;;;;;;;409.75;45.50;;;0.30;99.90;;;;;;4904150;28;20481;-93
2022/01/11 01:33:21;;;;;;;230.07;40.42;;;0.00;99.90;;;;;;4896891;28;20061;-93
2022/01/11 01:35:56;;;;;;;55.05;30.63;;;0.10;99.90;;;;;;4878083;28;20769;-92
2022/01/11 01:38:25;;;;;;;107.20;32.67;;;0.20;99.90;;;;;;4898108;28;20042;-93
2022/01/11 01:41:01;;;;;;;289.67;40.63;;;0.20;99.90;;;;;;4893224;28;20518;-93
2022/01/11 01:43:28;;;;;;;82.25;30.95;;;-0.10;99.90;;;;;;4914915;28;20850;-93
2022/01/11 01:45:58;;;;;;;165.38;34.42;;;0.10;99.90;;;;;;4900802;28;20045;-93
2022/01/11 01:48:24;;;;;;;83.65;30.83;;;0.10;99.90;;;;;;4900971;28;20049;-92
2022/01/11 01:50:53;;;;;;;86.55;30.10;;;0.10;99.90;;;;;;4903901;28;20395;-92
2022/01/11 01:53:24;;;;;;;142.15;36.28;;;-0.20;99.90;;;;;;4902630;28;20054;-92
2022/01/11 01:55:54;;;;;;;54.90;28.13;;;-0.20;99.90;;;;;;4921512;28;20044;-93
2022/01/11 01:58:21;;;;;;;111.45;34.47;;;-0.10;99.90;;;;;;4889767;28;20054;-92
2022/01/11 02:00:54;;;;;;;52.05;28.88;;;-0.10;99.90;;;;;;4902943;28;20132;-92
2022/01/11 02:03:26;;;;;;;64.50;30.23;;;-0.20;99.90;;;;;;4874577;28;20077;-93
2022/01/11 02:05:54;;;;;;;136.82;32.95;;;-0.10;99.90;;;;;;4903440;28;20039;-93
2022/01/11 02:08:20;;;;;;;61.67;30.13;;;-0.30;99.90;;;;;;4887500;28;20053;-92
2022/01/11 02:10:49;;;;;;;78.93;29.08;;;-0.30;99.90;;;;;;4917420;28;20499;-92
2022/01/11 02:13:16;;;;;;;64.55;30.73;;;-0.20;99.90;;;;;;4904765;28;20389;-92
2022/01/11 02:15:42;;;;;;;49.08;29.35;;;-0.10;99.90;;;;;;4903095;28;20169;-92
2022/01/11 02:18:19;;;;;;;135.85;33.75;;;-0.10;99.90;;;;;;4899305;28;20743;-93
2022/01/11 02:21:03;;;;;;;64.80;29.83;;;-0.10;99.90;;;;;;4912415;28;20269;-92
2022/01/11 02:23:29;;;;;;;78.10;30.42;;;-0.20;99.90;;;;;;4895223;28;20119;-92
2022/01/11 02:25:56;;;;;;;113.38;31.50;;;-0.10;99.90;;;;;;4880993;28;20046;-92
2022/01/11 02:28:24;;;;;;;95.53;31.38;;;-0.10;99.90;;;;;;4897009;28;20519;-93
2022/01/11 02:31:03;;;;;;;56.80;29.10;;;0.00;99.90;;;;;;4900782;28;20089;-92
2022/01/11 02:33:43;;;;;;;70.97;29.83;;;-0.20;99.90;;;;;;4898170;28;20042;-92
2022/01/11 02:36:16;;;;;;;59.72;31.20;;;-0.10;99.90;;;;;;4899418;28;20046;-92
2022/01/11 02:38:48;;;;;;;207.40;36.20;;;-0.10;99.90;;;;;;4900509;28;20057;-90
2022/01/11 02:41:24;;;;;;;48.70;30.52;;;-0.20;99.90;;;;;;4897628;28;20323;-92
2022/01/11 02:43:53;;;;;;;128.05;33.22;;;-0.20;99.90;;;;;;4923247;28;20038;-92
2022/01/11 02:46:20;;;;;;;57.75;30.50;;;-0.20;99.90;;;;;;4898793;28;20077;-89
2022/01/11 02:48:50;;;;;;;63.65;31.52;;;0.00;99.90;;;;;;4900184;28;20081;-90
2022/01/11 02:51:19;;;;;;;88.53;31.83;;;-0.20;99.90;;;;;;4893584;28;20100;-93
2022/01/11 02:53:57;;;;;;;107.07;32.50;;;-0.10;99.90;;;;;;4900243;28;20058;-92
2022/01/11 02:56:23;;;;;;;86.68;32.20;;;-0.20;99.90;;;;;;4902852;28;20539;-92
2022/01/11 02:58:50;;;;;;;66.85;31.45;;;0.00;99.90;;;;;;4903218;28;20471;-92
2022/01/11 03:01:15;;;;;;;82.80;32.45;;;-0.10;99.90;;;;;;4920763;28;20694;-91
2022/01/11 03:03:44;;;;;;;72.85;32.83;;;-0.10;99.90;;;;;;4909830;28;20574;-92
2022/01/11 03:06:14;;;;;;;55.72;29.88;;;0.00;99.90;;;;;;4911279;28;20070;-91
2022/01/11 03:08:42;;;;;;;63.90;31.65;;;0.00;99.90;;;;;;4900885;28;20082;-92
2022/01/11 03:11:10;;;;;;;128.65;32.80;;;-0.10;99.90;;;;;;4893474;28;20046;-92
2022/01/11 03:13:41;;;;;;;97.90;30.75;;;-0.10;99.90;;;;;;4888874;28;20046;-92
2022/01/11 03:16:08;;;;;;;73.90;31.25;;;-0.10;99.90;;;;;;4892282;28;20884;-91
2022/01/11 03:18:36;;;;;;;159.73;36.03;;;-0.10;99.90;;;;;;4896670;28;20068;-91
2022/01/11 03:21:03;;;;;;;66.35;31.15;;;-0.20;99.90;;;;;;4908757;28;20062;-90
2022/01/11 03:23:29;;;;;;;77.15;32.42;;;-0.10;99.90;;;;;;4911550;28;20085;-92
2022/01/11 03:26:02;;;;;;;66.70;30.48;;;-0.20;99.90;;;;;;4897493;28;20046;-92
2022/01/11 03:28:29;;;;;;;98.13;31.88;;;-0.10;99.90;;;;;;4900848;28;20114;-92
2022/01/11 03:30:59;;;;;;;54.55;30.23;;;-0.10;99.90;;;;;;4909061;28;20496;-92
2022/01/11 03:33:25;;;;;;;117.57;34.67;;;-0.20;99.90;;;;;;4921852;28;20618;-92
2022/01/11 03:35:51;;;;;;;48.75;30.08;;;-0.30;99.90;;;;;;4915660;28;20146;-91
2022/01/11 03:38:25;;;;;;;66.88;30.27;;;-0.20;99.90;;;;;;4926968;28;20054;-92
2022/01/11 03:40:53;;;;;;;54.22;31.02;;;-0.10;99.90;;;;;;4900260;28;20388;-92
2022/01/11 03:43:26;;;;;;;93.43;32.17;;;-0.20;99.90;;;;;;4880846;28;20140;-90
2022/01/11 03:45:55;;;;;;;63.58;32.30;;;-0.30;99.90;;;;;;4921676;28;20042;-93
2022/01/11 03:48:21;;;;;;;77.57;33.83;;;-0.20;99.90;;;;;;4917295;28;20137;-93
2022/01/11 03:50:52;;;;;;;88.28;34.13;;;-0.20;99.90;;;;;;4901633;28;20442;-91
2022/01/11 03:53:26;;;;;;;58.92;32.75;;;-0.30;99.90;;;;;;4900106;28;20097;-92
2022/01/11 03:58:20;;;;;;;69.28;31.63;;;-0.20;99.90;;;;;;4914745;28;20004;-90
2022/01/11 04:00:47;;;;;;;67.20;34.25;;;-0.20;99.90;;;;;;4900806;28;20049;-92
2022/01/11 04:03:13;;;;;;;82.03;35.70;;;-0.10;99.90;;;;;;4897726;28;20054;-93
2022/01/11 04:05:41;;;;;;;74.85;33.55;;;-0.10;99.90;;;;;;4906966;28;20049;-92
2022/01/11 04:08:07;;;;;;;62.28;34.53;;;-0.10;99.90;;;;;;4897578;28;20049;-92
2022/01/11 04:10:36;;;;;;;73.82;34.17;;;-0.10;99.90;;;;;;4908606;28;20421;-92
2022/01/11 04:13:02;;;;;;;70.35;34.10;;;-0.10;99.90;;;;;;4907602;28;20829;-91
2022/01/11 04:15:31;;;;;;;103.68;37.05;;;0.00;99.90;;;;;;4882780;28;20128;-91
2022/01/11 04:17:57;;;;;;;187.55;39.78;;;-0.10;99.90;;;;;;4897792;28;20407;-92
2022/01/11 04:20:25;;;;;;;68.68;35.00;;;-0.20;99.90;;;;;;4903447;28;20042;-92
2022/01/11 04:22:52;;;;;;;62.47;34.20;;;0.00;99.90;;;;;;4887955;28;20754;-91
2022/01/11 04:25:19;;;;;;;75.65;35.30;;;0.10;99.90;;;;;;4911377;28;20046;-92
2022/01/11 04:27:45;;;;;;;71.28;36.42;;;0.10;99.90;;;;;;4899193;28;22340;-93
2022/01/11 04:30:12;;;;;;;82.95;37.03;;;0.00;99.90;;;;;;4924314;28;20066;-92
2022/01/11 04:32:53;;;;;;;60.83;33.90;;;0.10;99.90;;;;;;4912348;28;21005;-92
2022/01/11 04:38:58;;;;;;;71.25;35.38;;;0.10;99.90;;;;;;4925756;28;20394;-94
2022/01/11 04:41:24;;;;;;;83.15;35.30;;;0.10;99.90;;;;;;4917204;28;20415;-93
2022/01/11 04:44:00;;;;;;;72.30;35.38;;;0.00;99.90;;;;;;4893033;28;20798;-94
2022/01/11 04:46:27;;;;;;;79.35;36.78;;;0.00;99.90;;;;;;4917489;28;20046;-93
2022/01/11 04:48:54;;;;;;;71.63;36.38;;;0.00;99.90;;;;;;4902035;28;20058;-94
2022/01/11 04:51:24;;;;;;;82.95;36.05;;;0.00;99.90;;;;;;4911433;28;20543;-92
2022/01/11 04:53:54;;;;;;;77.82;37.20;;;0.00;99.90;;;;;;4896833;28;20058;-92
2022/01/11 04:56:25;;;;;;;75.15;36.75;;;0.00;99.90;;;;;;4905329;28;20064;-91
2022/01/11 04:58:57;;;;;;;73.05;34.88;;;0.10;99.90;;;;;;4903300;28;20378;-94
2022/01/11 05:01:55;;;;;;;79.00;37.72;;;0.20;99.90;;;;;;4899404;28;20197;-94
2022/01/11 05:04:34;;;;;;;82.85;36.17;;;0.00;99.90;;;;;;4904426;28;20054;-94
2022/01/11 05:07:14;;;;;;;75.05;36.13;;;0.00;99.90;;;;;;4908552;28;20137;-95
2022/01/11 05:09:40;;;;;;;84.53;35.75;;;0.10;99.90;;;;;;4919116;28;20077;-93
2022/01/11 05:43:00;;;;;;;85.65;38.05;;;0.20;99.90;;;;;;4814832;29;20066;-93
2022/01/11 05:45:55;;;;;;;125.25;43.28;;;0.20;99.90;;;;;;4752048;29;20054;-96
2022/01/11 05:48:32;;;;;;;98.32;41.20;;;0.30;99.90;;;;;;4759560;29;20061;-92
2022/01/11 05:51:04;;;;;;;117.32;42.88;;;0.20;99.90;;;;;;4777983;29;20093;-93
2022/01/11 05:54:08;;;;;;;107.85;41.95;;;0.40;99.90;;;;;;4794124;29;20272;-94
2022/01/11 05:56:51;;;;;;;100.90;41.17;;;0.20;99.90;;;;;;4824959;29;20724;-93
2022/01/11 05:59:35;;;;;;;106.10;42.70;;;0.30;99.90;;;;;;4877294;28;20066;-93
2022/01/11 06:05:44;;;;;;;106.65;41.60;;;0.30;99.90;;;;;;4884816;28;20085;-93
2022/01/11 06:08:19;;;;;;;106.65;44.08;;;0.30;99.90;;;;;;4875742;28;20039;-90
2022/01/11 06:10:48;;;;;;;97.90;43.88;;;0.20;99.90;;;;;;4869683;28;20469;-93
2022/01/11 06:13:15;;;;;;;103.65;44.38;;;0.20;99.90;;;;;;4892852;28;20101;-92
2022/01/11 06:15:43;;;;;;;105.03;43.70;;;0.20;99.90;;;;;;4875421;28;20590;-93
2022/01/11 06:18:45;;;;;;;94.80;42.28;;;0.20;99.90;;;;;;4903758;28;20427;-93
2022/01/11 06:21:14;;;;;;;81.80;41.15;;;0.20;99.90;;;;;;4858457;28;20073;-91
2022/01/11 06:23:43;;;;;;;88.07;39.28;;;0.20;99.90;;;;;;4886915;28;20070;-91
2022/01/11 06:26:13;;;;;;;89.18;40.80;;;0.10;99.90;;;;;;4871664;28;20612;-91
2022/01/11 06:28:43;;;;;;;78.30;40.35;;;0.20;99.90;;;;;;4886326;28;20102;-92
2022/01/11 06:31:15;;;;;;;76.53;39.00;;;0.20;99.90;;;;;;4906101;28;20566;-91
2022/01/11 06:33:43;;;;;;;68.25;39.35;;;0.10;99.90;;;;;;4913216;28;20162;-92
2022/01/11 06:36:12;;;;;;;74.63;38.88;;;0.10;99.90;;;;;;4887019;28;20049;-92
2022/01/11 06:38:39;;;;;;;67.53;37.50;;;0.00;99.90;;;;;;4888305;28;20070;-89
2022/01/11 06:41:05;;;;;;;69.93;38.63;;;0.10;99.90;;;;;;4894973;28;20148;-91
2022/01/11 06:43:30;;;;;;;64.00;36.88;;;0.00;99.90;;;;;;4909838;28;20053;-90
2022/01/11 06:45:59;;;;;;;61.75;34.95;;;0.00;99.90;;;;;;4887784;28;20046;-91
2022/01/11 06:48:28;;;;;;;65.40;37.03;;;0.00;99.90;;;;;;4908182;28;20521;-90
2022/01/11 06:50:54;;;;;;;62.05;34.65;;;0.00;99.90;;;;;;4896365;28;20870;-90
2022/01/11 06:53:20;;;;;;;59.80;34.30;;;-0.10;99.90;;;;;;4900970;28;20442;-91
2022/01/11 06:55:46;;;;;;;56.97;32.92;;;-0.10;99.90;;;;;;4894575;28;20519;-91
2022/01/11 06:58:16;;;;;;;54.95;32.72;;;-0.20;99.90;;;;;;4890690;28;20050;-88
2022/01/11 07:00:43;;;;;;;56.63;33.97;;;-0.10;99.90;;;;;;4888901;28;20664;-89
2022/01/11 07:03:12;;;;;;;56.22;31.20;;;-0.20;99.90;;;;;;4897418;28;20917;-90
2022/01/11 07:05:38;;;;;;;60.55;33.40;;;-0.20;99.90;;;;;;4882004;28;20055;-90
2022/01/11 07:08:04;;;;;;;52.55;31.20;;;-0.20;99.90;;;;;;4887930;28;20610;-91
2022/01/11 07:10:30;;;;;;;52.67;31.63;;;-0.20;99.90;;;;;;4891619;28;20436;-89
2022/01/11 07:12:57;;;;;;;53.58;30.67;;;-0.30;99.90;;;;;;4887163;28;20066;-88
2022/01/11 07:15:26;;;;;;;52.28;30.23;;;-0.30;99.90;;;;;;4877501;28;20042;-88
2022/01/11 07:17:52;;;;;;;49.15;31.27;;;-0.20;99.90;;;;;;4891706;28;20866;-89
2022/01/11 07:20:22;;;;;;;58.25;30.80;;;-0.30;99.90;;;;;;4882534;28;20042;-90
2022/01/11 07:22:48;;;;;;;52.33;29.75;;;-0.40;99.90;;;;;;4892574;28;20570;-89
2022/01/11 07:25:14;;;;;;;52.72;29.95;;;-0.50;99.90;;;;;;4884814;28;20443;-90
2022/01/11 07:27:40;;;;;;;61.83;31.95;;;-0.30;99.90;;;;;;4871832;28;20440;-88
2022/01/11 07:30:12;;;;;;;56.95;30.75;;;-0.30;99.90;;;;;;4858497;28;20846;-89
2022/01/11 07:32:37;;;;;;;53.55;30.30;;;-0.30;99.90;;;;;;4901905;28;20062;-86
2022/01/11 07:35:04;;;;;;;49.78;30.40;;;-0.30;99.90;;;;;;4878589;28;20060;-88
2022/01/11 07:37:30;;;;;;;51.38;29.73;;;-0.40;99.90;;;;;;4897663;28;20061;-88
2022/01/11 07:39:56;;;;;;;52.17;30.02;;;-0.30;99.90;;;;;;4894776;28;20476;-86
2022/01/11 07:42:25;;;;;;;57.47;31.60;;;-0.30;99.90;;;;;;4890092;28;20050;-87
2022/01/11 07:44:53;;;;;;;48.17;30.92;;;-0.30;99.90;;;;;;4881306;28;20050;-86
2022/01/11 07:47:20;;;;;;;54.28;31.02;;;-0.40;99.90;;;;;;4877039;28;20045;-88
2022/01/11 07:49:49;;;;;;;50.88;29.70;;;-0.40;99.90;;;;;;4880751;28;20124;-85
2022/01/11 07:52:16;;;;;;;50.97;30.30;;;-0.30;99.90;;;;;;4881034;28;20498;-87
2022/01/11 07:54:42;;;;;;;48.83;29.52;;;-0.30;99.90;;;;;;4875647;28;20088;-87
2022/01/11 07:57:08;;;;;;;57.95;31.67;;;-0.30;99.90;;;;;;4872667;28;21008;-88
2022/01/11 07:59:34;;;;;;;51.03;29.67;;;-0.20;99.90;;;;;;4892733;28;20132;-85
2022/01/11 08:02:00;;;;;;;54.13;32.28;;;-0.20;99.90;;;;;;4890089;28;20767;-85
2022/01/11 08:04:30;;;;;;;47.22;30.05;;;-0.20;99.90;;;;;;4874783;28;20547;-87
2022/01/11 08:06:59;;;;;;;47.20;28.75;;;-0.10;99.90;;;;;;4867534;28;20278;-87
2022/01/11 08:09:28;;;;;;;51.20;29.73;;;0.00;99.90;;;;;;4887658;28;20054;-88
2022/01/11 08:11:58;;;;;;;47.92;28.40;;;0.00;99.90;;;;;;4889849;28;20837;-86
2022/01/11 08:14:25;;;;;;;51.13;30.05;;;0.20;99.90;;;;;;4876411;28;20116;-86
2022/01/11 08:16:51;;;;;;;49.85;30.60;;;0.20;99.90;;;;;;4868556;28;20415;-87
2022/01/11 08:19:17;;;;;;;50.65;29.90;;;0.30;99.90;;;;;;4893837;28;20914;-86
2022/01/11 08:21:43;;;;;;;51.63;31.45;;;0.40;99.90;;;;;;4887390;28;20050;-87
2022/01/11 08:24:09;;;;;;;51.38;30.35;;;0.40;99.90;;;;;;4908194;28;20049;-86
2022/01/11 08:26:37;;;;;;;56.60;31.40;;;0.40;99.90;;;;;;4899577;28;20046;-87
2022/01/11 08:29:03;;;;;;;50.55;30.13;;;0.60;99.90;;;;;;4891102;28;20352;-88
2022/01/11 08:31:32;;;;;;;51.90;32.05;;;0.70;99.90;;;;;;4881577;28;20491;-91
2022/01/11 08:33:58;;;;;;;55.70;30.42;;;0.90;99.90;;;;;;4904930;28;20693;-90
2022/01/11 08:36:26;;;;;;;54.85;30.33;;;0.90;99.90;;;;;;4869320;28;20157;-89
2022/01/11 08:38:52;;;;;;;46.65;29.42;;;1.10;99.90;;;;;;4867231;28;20050;-89
2022/01/11 08:41:22;;;;;;;47.78;30.60;;;1.10;99.90;;;;;;4877763;28;20101;-85
2022/01/11 08:43:48;;;;;;;48.72;30.50;;;1.20;99.90;;;;;;4902171;28;20046;-87
2022/01/11 08:46:16;;;;;;;48.92;30.50;;;1.30;99.90;;;;;;4900573;28;20045;-88
2022/01/11 08:48:42;;;;;;;50.45;30.13;;;1.40;99.90;;;;;;4881971;28;20058;-89
2022/01/11 08:51:10;;;;;;;51.53;29.20;;;1.40;99.90;;;;;;4883101;28;20571;-88
2022/01/11 08:53:39;;;;;;;44.67;28.38;;;1.60;99.90;;;;;;4876585;28;20108;-92
2022/01/11 08:56:17;;;;;;;44.80;28.95;;;1.60;99.90;;;;;;4881260;28;20050;-92
2022/01/11 08:58:44;;;;;;;43.55;27.42;;;1.70;99.90;;;;;;4898893;28;20104;-89
2022/01/11 09:01:20;;;;;;;39.53;26.45;;;1.70;99.90;;;;;;4885062;28;20051;-90
2022/01/11 09:03:49;;;;;;;41.63;26.85;;;1.70;99.90;;;;;;4904682;28;20508;-92
2022/01/11 09:06:15;;;;;;;39.95;25.98;;;1.80;99.90;;;;;;4889920;28;20038;-90
2022/01/11 09:08:41;;;;;;;42.97;26.73;;;1.70;99.90;;;;;;4899187;28;20450;-92
2022/01/11 09:11:11;;;;;;;44.72;25.48;;;1.80;99.90;;;;;;4886074;28;20142;-94
2022/01/11 09:13:40;;;;;;;38.75;23.88;;;1.90;99.90;;;;;;4918942;28;20049;-91
2022/01/11 09:16:06;;;;;;;35.47;21.85;;;1.90;99.90;;;;;;4895565;28;20046;-90
2022/01/11 09:19:14;;;;;;;33.10;20.92;;;1.90;99.90;;;;;;4903599;28;20499;-95
2022/01/11 09:21:55;;;;;;;31.52;20.20;;;1.80;99.90;;;;;;4908354;28;20054;-93
2022/01/11 09:25:06;;;;;;;28.48;18.58;;;1.80;99.90;;;;;;4915970;28;20078;-92
2022/01/11 09:28:23;;;;;;;32.13;19.45;;;1.60;99.90;;;;;;4806299;29;20054;-95
2022/01/11 09:30:54;;;;;;;31.15;18.52;;;1.60;99.90;;;;;;4775463;29;20582;-92
2022/01/11 09:33:46;;;;;;;33.28;19.83;;;1.60;99.90;;;;;;4738837;29;20051;-92
2022/01/11 09:36:21;;;;;;;33.10;20.05;;;1.70;99.90;;;;;;4748340;29;20342;-91
2022/01/11 09:38:55;;;;;;;32.63;19.27;;;1.70;99.90;;;;;;4785933;29;20639;-93
2022/01/11 09:41:46;;;;;;;32.22;20.10;;;1.70;99.90;;;;;;4725917;29;20112;-95
2022/01/11 09:44:38;;;;;;;33.85;20.98;;;1.90;99.90;;;;;;4740645;29;20613;-95
2022/01/11 09:47:43;;;;;;;37.25;20.02;;;2.00;99.90;;;;;;4743110;29;20089;-95
2022/01/11 09:50:24;;;;;;;30.52;19.95;;;2.10;99.90;;;;;;4758182;29;20397;-92
2022/01/11 09:52:59;;;;;;;31.70;19.70;;;2.10;99.90;;;;;;4767814;29;20060;-94
2022/01/11 09:55:34;;;;;;;32.80;19.40;;;2.10;99.90;;;;;;4850941;29;21051;-92
2022/01/11 09:58:03;;;;;;;33.60;20.13;;;1.90;99.90;;;;;;4874370;28;20058;-93
2022/01/11 10:00:32;;;;;;;34.83;20.23;;;2.00;99.90;;;;;;4908826;28;20518;-90
2022/01/11 10:03:01;;;;;;;33.95;21.40;;;2.00;99.90;;;;;;4913497;28;20154;-92
2022/01/11 10:05:32;;;;;;;31.38;21.00;;;2.10;99.90;;;;;;4925090;28;20047;-93
2022/01/11 10:08:41;;;;;;;32.97;20.58;;;2.20;99.90;;;;;;4914364;28;20368;-91
2022/01/11 10:11:31;;;;;;;35.47;20.30;;;2.20;99.90;;;;;;4930016;28;20391;-90
2022/01/11 10:13:56;;;;;;;30.00;19.90;;;2.00;99.90;;;;;;4926384;28;20054;-92
2022/01/11 10:16:28;;;;;;;32.70;19.90;;;1.90;99.90;;;;;;4921968;28;20038;-94
2022/01/11 10:18:56;;;;;;;37.15;20.60;;;2.00;99.90;;;;;;4910332;28;20152;-90
2022/01/11 10:21:43;;;;;;;32.40;19.80;;;1.90;99.90;;;;;;4916335;28;20085;-90
2022/01/11 10:24:39;;;;;;;33.58;19.92;;;1.90;99.90;;;;;;4904109;28;20464;-93
2022/01/11 10:27:13;;;;;;;31.60;19.77;;;2.00;99.90;;;;;;4895731;28;20859;-91
2022/01/11 10:29:42;;;;;;;34.95;20.23;;;1.90;99.90;;;;;;4897756;28;20404;-93
2022/01/11 10:32:32;;;;;;;40.78;20.17;;;1.90;99.90;;;;;;4908574;28;20046;-92
2022/01/11 10:35:01;;;;;;;41.22;20.02;;;1.90;99.90;;;;;;4884539;28;20504;-91
2022/01/11 10:37:48;;;;;;;32.38;20.10;;;1.90;99.90;;;;;;4901202;28;20400;-92
2022/01/11 10:40:23;;;;;;;32.22;18.70;;;1.90;99.90;;;;;;4915616;28;20081;-90
2022/01/11 10:42:50;;;;;;;35.30;19.58;;;1.90;99.90;;;;;;4913240;28;20042;-91
2022/01/11 10:45:25;;;;;;;37.17;19.90;;;1.90;99.90;;;;;;4901447;28;20050;-92
2022/01/11 10:47:59;;;;;;;34.85;19.95;;;1.90;99.90;;;;;;4899789;28;20153;-95
2022/01/11 10:50:42;;;;;;;33.08;18.48;;;2.00;99.90;;;;;;4900596;28;20049;-92
2022/01/11 10:53:13;;;;;;;37.40;19.20;;;2.00;99.90;;;;;;4923258;28;20543;-91
2022/01/11 10:55:54;;;;;;;34.05;19.42;;;1.90;99.90;;;;;;4896667;28;20395;-92
2022/01/11 10:58:28;;;;;;;34.88;19.85;;;1.90;99.90;;;;;;4931171;28;20038;-91
2022/01/11 11:00:57;;;;;;;34.10;20.00;;;1.90;99.90;;;;;;4896743;28;20042;-90
2022/01/11 11:03:26;;;;;;;34.25;18.75;;;1.90;99.90;;;;;;4910646;28;20052;-91
2022/01/11 11:05:58;;;;;;;34.25;18.55;;;2.00;99.90;;;;;;4905710;28;20074;-92
2022/01/11 11:08:39;;;;;;;36.42;19.80;;;2.00;99.90;;;;;;4912850;28;20088;-92
2022/01/11 11:11:12;;;;;;;33.00;18.75;;;2.00;99.90;;;;;;4924189;28;20438;-91
2022/01/11 11:13:40;;;;;;;33.67;19.50;;;2.10;99.90;;;;;;4912870;28;20057;-90
2022/01/11 11:16:40;;;;;;;32.58;19.30;;;2.10;99.90;;;;;;4912591;28;20054;-93
2022/01/11 11:19:09;;;;;;;36.40;19.92;;;2.10;99.90;;;;;;4875254;28;20054;-91
2022/01/11 11:21:39;;;;;;;35.78;19.95;;;2.20;99.90;;;;;;4877073;28;20084;-91
2022/01/11 11:24:23;;;;;;;35.55;19.30;;;2.30;99.90;;;;;;4889774;28;20131;-91
2022/01/11 11:26:51;;;;;;;32.00;19.30;;;2.30;99.90;;;;;;4905318;28;20042;-92
2022/01/11 11:29:26;;;;;;;34.65;19.92;;;2.30;99.90;;;;;;4895925;28;20050;-93
2022/01/11 11:31:54;;;;;;;33.33;19.65;;;2.20;99.90;;;;;;4911230;28;20381;-90
2022/01/11 11:34:25;;;;;;;39.22;20.48;;;2.30;99.90;;;;;;4898778;28;20855;-90
2022/01/11 11:36:52;;;;;;;39.45;22.15;;;2.50;99.90;;;;;;4915208;28;20054;-89
2022/01/11 11:39:20;;;;;;;36.70;20.25;;;2.60;99.90;;;;;;4889255;28;20966;-89
2022/01/11 11:41:53;;;;;;;37.20;20.55;;;2.60;99.90;;;;;;4871981;28;20646;-89
2022/01/11 11:44:21;;;;;;;33.80;19.48;;;2.50;99.90;;;;;;4924856;28;20499;-89
2022/01/11 11:46:56;;;;;;;34.60;19.92;;;2.50;99.90;;;;;;4924459;28;20149;-91
2022/01/11 11:49:44;;;;;;;36.88;20.73;;;2.50;99.90;;;;;;4918127;28;20046;-89
2022/01/11 11:52:37;;;;;;;43.67;22.15;;;2.60;99.90;;;;;;4930850;28;20057;-94
2022/01/11 11:55:30;;;;;;;36.00;20.42;;;2.80;99.90;;;;;;4923074;28;20042;-92
2022/01/11 11:58:02;;;;;;;36.37;21.00;;;2.90;99.90;;;;;;4888575;28;20066;-91
2022/01/11 12:00:34;;;;;;;37.10;22.23;;;3.10;99.90;;;;;;4898337;28;20120;-89
2022/01/11 12:03:22;;;;;;;34.22;18.98;;;3.20;99.90;;;;;;4892243;28;20446;-93
2022/01/11 12:05:53;;;;;;;37.40;21.02;;;3.20;99.90;;;;;;4909640;28;20057;-90
2022/01/11 12:08:36;;;;;;;38.30;21.25;;;3.30;99.90;;;;;;4890139;28;20412;-90
2022/01/11 12:11:17;;;;;;;37.63;22.00;;;3.20;99.90;;;;;;4885451;28;20054;-88
2022/01/11 12:13:56;;;;;;;38.13;21.83;;;3.30;99.90;;;;;;4907488;28;20112;-89
2022/01/11 12:16:25;;;;;;;34.75;20.60;;;3.10;99.90;;;;;;4923849;28;20170;-90
2022/01/11 12:18:58;;;;;;;36.00;21.23;;;3.00;99.90;;;;;;4892064;28;20879;-91
2022/01/11 12:21:38;;;;;;;35.97;20.48;;;3.00;99.90;;;;;;4893416;28;20471;-91
2022/01/11 12:24:32;;;;;;;38.20;22.23;;;3.00;99.90;;;;;;4888403;28;20084;-91
2022/01/11 12:27:04;;;;;;;38.33;21.98;;;3.10;99.90;;;;;;4891418;28;20050;-92
2022/01/11 12:29:30;;;;;;;36.80;20.48;;;3.10;99.90;;;;;;4905262;28;20066;-90
2022/01/11 12:32:06;;;;;;;37.08;21.20;;;3.10;99.90;;;;;;4897906;28;20073;-94
2022/01/11 12:34:50;;;;;;;41.47;21.35;;;3.20;99.90;;;;;;4899013;28;20425;-91
2022/01/11 12:37:44;;;;;;;39.45;21.70;;;3.20;99.90;;;;;;4903130;28;20214;-90
2022/01/11 12:40:18;;;;;;;38.03;21.88;;;3.30;99.90;;;;;;4892199;28;20846;-92
2022/01/11 12:42:51;;;;;;;;;;;3.30;99.90;;;;;;4893163;28;20073;-90
2022/01/11 12:45:38;;;;;;;35.35;19.77;;;3.30;99.90;;;;;;4897154;28;20009;-93
2022/01/11 12:48:07;;;;;;;37.85;21.85;;;3.40;99.90;;;;;;4894931;28;20112;-91
2022/01/11 12:50:54;;;;;;;39.83;22.00;;;3.50;99.90;;;;;;4905878;28;20070;-89
2022/01/11 12:53:23;;;;;;;37.55;22.02;;;3.70;99.90;;;;;;4891344;28;20038;-91
2022/01/11 12:55:58;;;;;;;36.75;21.13;;;3.90;99.90;;;;;;4907289;28;20492;-91
2022/01/11 12:58:24;;;;;;;37.60;21.20;;;4.00;99.90;;;;;;4908218;28;20322;-91
2022/01/11 13:01:01;;;;;;;39.90;21.77;;;4.10;99.90;;;;;;4921991;28;20050;-92
2022/01/11 13:03:27;;;;;;;40.85;21.90;;;4.00;99.90;;;;;;4907162;28;20223;-92
2022/01/11 13:05:54;;;;;;;39.70;22.58;;;4.20;99.90;;;;;;4906264;28;20073;-93
2022/01/11 13:08:29;;;;;;;40.05;23.02;;;4.20;99.90;;;;;;4897994;28;20047;-91
2022/01/11 13:10:55;;;;;;;38.28;22.65;;;4.50;99.90;;;;;;4903601;28;20058;-89
2022/01/11 13:13:27;;;;;;;39.22;22.05;;;4.30;99.90;;;;;;4910753;28;20467;-89
2022/01/11 13:15:52;;;;;;;39.50;21.58;;;4.30;99.90;;;;;;4894244;28;20503;-89
2022/01/11 13:18:27;;;;;;;37.15;20.15;;;4.40;99.90;;;;;;4878575;28;20513;-89
2022/01/11 13:20:56;;;;;;;35.72;20.17;;;4.20;99.90;;;;;;4889726;28;20061;-89
2022/01/11 13:23:59;;;;;;;38.83;20.73;;;4.20;99.90;;;;;;4909253;28;20762;-92
2022/01/11 13:26:30;;;;;;;36.20;21.85;;;4.10;99.90;;;;;;4907117;28;20562;-92
2022/01/11 13:29:00;;;;;;;37.45;20.58;;;4.10;99.90;;;;;;4893119;28;20499;-91
2022/01/11 13:31:32;;;;;;;38.67;21.83;;;4.20;99.90;;;;;;4893169;28;20327;-91
2022/01/11 13:34:02;;;;;;;36.35;20.45;;;4.30;99.90;;;;;;4893214;28;20054;-90
2022/01/11 13:36:34;;;;;;;39.78;20.77;;;4.10;99.90;;;;;;4920525;28;20210;-90
2022/01/11 13:39:15;;;;;;;37.97;21.55;;;4.20;99.90;;;;;;4913835;28;20065;-90
2022/01/11 13:41:53;;;;;;;35.75;19.60;;;4.10;99.90;;;;;;4898696;28;20463;-90